Time;durP1;ratioP1;P1;durP2;ratioP2;P2;SDS_P1;SDS_P2;PMS_P1;PMS_P2;Temp;Humidity;BMP_temperature;BMP_pressure;BME280_temperature;BME280_humidity;BME280_pressure;Samples;Min_cycle;Max_cycle;Signal;HPM_P1;HPM_P2
2022/10/11 00:00:24;;;;;;;12.40;7.40;;;;;;;8.49;73.47;100763.81;88614;1304;22080;-76
2022/10/11 00:02:49;;;;;;;14.30;7.90;;;;;;;8.46;73.58;100768.42;88601;1303;22093;-76
2022/10/11 00:04:56;;;;;;;16.70;8.60;;;;;;;8.42;73.73;100768.17;88597;1303;22120;-76
2022/10/11 00:07:02;;;;;;;14.40;8.10;;;;;;;8.39;74.08;100767.19;88614;1303;22086;-76
2022/10/11 00:09:07;;;;;;;11.70;8.00;;;;;;;8.37;74.16;100768.97;88827;1285;22035;-76
2022/10/11 00:11:13;;;;;;;13.00;7.50;;;;;;;8.35;74.21;100762.73;88817;1283;22644;-76
2022/10/11 00:13:19;;;;;;;15.80;9.10;;;;;;;8.34;74.17;100763.46;88606;1298;22099;-76
2022/10/11 00:15:24;;;;;;;13.40;7.70;;;;;;;8.31;74.28;100761.62;88798;1288;22715;-76
2022/10/11 00:17:30;;;;;;;15.30;8.20;;;;;;;8.29;74.41;100764.79;88602;1303;22066;-76
2022/10/11 00:19:36;;;;;;;12.00;7.20;;;;;;;8.26;74.37;100764.84;88822;1296;22060;-76
2022/10/11 00:21:41;;;;;;;13.50;7.80;;;;;;;8.24;74.43;100764.89;88603;1285;22074;-76
2022/10/11 00:23:47;;;;;;;12.80;8.40;;;;;;;8.22;74.45;100766.50;88616;1304;22595;-76
2022/10/11 00:25:59;;;;;;;12.90;8.40;;;;;;;8.19;74.61;100760.29;88635;1298;22038;-76
2022/10/11 00:28:05;;;;;;;13.80;8.70;;;;;;;8.17;74.71;100762.95;88602;1303;22066;-76
2022/10/11 00:30:12;;;;;;;18.80;8.60;;;;;;;8.15;74.72;100761.79;88828;1296;22053;-76
2022/10/11 00:32:18;;;;;;;12.10;7.40;;;;;;;8.13;74.88;100762.19;88831;1291;22055;-76
2022/10/11 00:34:24;;;;;;;11.60;7.70;;;;;;;8.11;74.94;100762.74;88597;1303;22702;-76
2022/10/11 00:36:29;;;;;;;10.40;8.00;;;;;;;8.08;74.84;100761.41;88602;1299;22043;-76
2022/10/11 00:38:35;;;;;;;13.50;8.70;;;;;;;8.07;75.01;100758.66;88607;1299;22096;-76
2022/10/11 00:40:43;;;;;;;17.30;9.30;;;;;;;8.04;75.09;100756.98;88588;1296;22116;-76
2022/10/11 00:42:49;;;;;;;17.00;8.20;;;;;;;8.01;75.11;100758.97;88804;1296;22723;-76
2022/10/11 00:45:53;;;;;;;24.30;8.30;;;;;;;7.98;75.20;100759.20;88609;1303;22056;-76
2022/10/11 00:48:01;;;;;;;14.10;8.20;;;;;;;7.93;75.34;100757.74;88674;1296;22634;-76
2022/10/11 00:50:09;;;;;;;14.10;8.40;;;;;;;7.91;75.43;100758.66;88603;1303;22233;-76
2022/10/11 00:52:16;;;;;;;15.20;7.50;;;;;;;7.88;75.45;100757.86;88596;1303;22058;-76
2022/10/11 00:54:25;;;;;;;13.50;7.90;;;;;;;7.86;75.63;100753.73;88598;1291;22056;-76
2022/10/11 00:56:33;;;;;;;11.20;7.70;;;;;;;7.84;75.82;100750.63;88632;1294;22053;-76
2022/10/11 00:58:39;;;;;;;11.80;9.00;;;;;;;7.82;75.91;100748.41;88794;1288;22090;-75
2022/10/11 01:00:44;;;;;;;13.60;8.80;;;;;;;7.81;76.10;100742.20;88606;1302;22059;-75
2022/10/11 01:02:50;;;;;;;12.60;7.70;;;;;;;7.78;76.04;100738.77;88602;1303;22092;-75
2022/10/11 01:04:55;;;;;;;16.80;8.60;;;;;;;7.77;76.18;100740.69;88835;1287;22036;-75
2022/10/11 01:07:01;;;;;;;11.70;8.30;;;;;;;7.76;76.15;100736.89;88595;1303;22085;-76
2022/10/11 01:09:06;;;;;;;14.60;7.50;;;;;;;7.74;76.15;100735.91;88458;1298;22088;-76
2022/10/11 01:11:13;;;;;;;11.20;7.80;;;;;;;7.71;76.40;100735.96;88769;1296;22742;-76
2022/10/11 01:13:26;;;;;;;18.00;8.30;;;;;;;7.69;76.47;100737.05;88505;1284;22074;-76
2022/10/11 01:15:34;;;;;;;13.90;9.00;;;;;;;7.68;76.44;100731.52;88483;1306;22130;-76
2022/10/11 01:17:48;;;;;;;11.70;7.30;;;;;;;7.66;76.61;100732.92;88817;1296;22063;-76
2022/10/11 01:20:10;;;;;;;12.20;8.00;;;;;;;7.66;76.65;100729.48;88608;1298;22055;-76
2022/10/11 01:22:31;;;;;;;13.20;7.40;;;;;;;7.64;76.81;100733.66;88599;1303;22738;-77
2022/10/11 01:24:54;;;;;;;9.90;7.80;;;;;;;7.62;76.95;100728.68;88758;1299;22079;-77
2022/10/11 01:27:36;;;;;;;13.40;8.50;;;;;;;7.61;77.03;100730.79;88551;1305;22080;-76
2022/10/11 01:29:48;;;;;;;10.70;8.20;;;;;;;7.62;77.16;100731.98;88821;1296;22676;-76
2022/10/11 01:31:57;;;;;;;15.60;9.10;;;;;;;7.63;77.18;100727.44;88601;1303;22066;-76
2022/10/11 01:34:05;;;;;;;11.40;8.40;;;;;;;7.64;77.22;100724.66;88811;1287;22569;-76
2022/10/11 01:36:17;;;;;;;10.80;7.90;;;;;;;7.66;77.35;100719.56;88601;1298;22054;-76
2022/10/11 01:38:27;;;;;;;16.00;8.10;;;;;;;7.69;77.31;100715.35;88606;1303;22044;-76
2022/10/11 01:40:34;;;;;;;13.00;8.20;;;;;;;7.71;77.31;100715.13;88608;1303;22171;-76
2022/10/11 01:42:40;;;;;;;17.70;8.70;;;;;;;7.72;77.43;100715.09;88716;1287;22111;-76
2022/10/11 01:44:47;;;;;;;12.50;7.70;;;;;;;7.74;77.55;100716.29;88628;1304;22037;-76
2022/10/11 01:46:53;;;;;;;13.00;8.20;;;;;;;7.76;77.54;100716.23;88705;1299;22648;-76
2022/10/11 01:49:01;;;;;;;14.10;8.90;;;;;;;7.78;77.68;100717.59;88094;1294;1002294;-76
2022/10/11 01:51:08;;;;;;;12.90;7.70;;;;;;;7.79;77.62;100723.13;88726;1287;22801;-76
2022/10/11 01:53:48;;;;;;;11.30;8.20;;;;;;;7.80;77.66;100719.11;88537;1298;22141;-76
2022/10/11 01:55:56;;;;;;;12.70;8.20;;;;;;;7.80;77.67;100724.14;88818;1277;22007;-76
2022/10/11 01:58:10;;;;;;;13.60;8.50;;;;;;;7.82;77.68;100722.02;88840;1288;22023;-76
2022/10/11 02:00:17;;;;;;;14.80;8.70;;;;;;;7.82;77.69;100721.67;88616;1304;22637;-76
2022/10/11 02:02:34;;;;;;;12.60;8.90;;;;;;;7.83;77.86;100718.35;88825;1288;22081;-76
2022/10/11 02:04:42;;;;;;;22.70;9.30;;;;;;;7.83;77.83;100716.27;88825;1294;22617;-76
2022/10/11 02:06:58;;;;;;;14.90;8.10;;;;;;;7.84;77.91;100714.01;88809;1296;22651;-76
2022/10/11 02:09:08;;;;;;;13.70;8.80;;;;;;;7.84;78.17;100708.08;88815;1296;22693;-76
2022/10/11 02:11:17;;;;;;;14.80;7.70;;;;;;;7.85;78.06;100712.77;88815;1278;22023;-76
2022/10/11 02:13:27;;;;;;;18.40;10.40;;;;;;;7.86;78.04;100709.44;88814;1294;22022;-76
2022/10/11 02:15:32;;;;;;;13.40;9.00;;;;;;;7.88;78.28;100708.69;88618;1304;22527;-76
2022/10/11 02:17:42;;;;;;;14.40;8.70;;;;;;;7.90;78.09;100703.63;88596;1304;22592;-76
2022/10/11 02:19:51;;;;;;;12.00;7.60;;;;;;;7.91;78.17;100703.76;88834;1284;22048;-76
2022/10/11 02:22:02;;;;;;;17.10;9.50;;;;;;;7.92;78.24;100702.16;88725;1288;22058;-76
2022/10/11 02:24:10;;;;;;;9.20;7.20;;;;;;;7.94;78.24;100703.01;88752;1299;22720;-76
2022/10/11 02:26:16;;;;;;;12.10;8.60;;;;;;;7.94;78.25;100703.00;88800;1296;22085;-76
2022/10/11 02:28:24;;;;;;;14.90;7.90;;;;;;;7.96;78.34;100707.30;88803;1296;22072;-75
2022/10/11 02:30:30;;;;;;;14.60;9.30;;;;;;;7.97;78.40;100711.95;88721;1299;22659;-76
2022/10/11 02:32:35;;;;;;;12.80;8.90;;;;;;;7.99;78.35;100707.41;88829;1288;22006;-76
2022/10/11 02:34:43;;;;;;;14.10;9.10;;;;;;;8.00;78.37;100709.64;88589;1305;22099;-76
2022/10/11 02:36:54;;;;;;;13.60;9.20;;;;;;;8.01;78.47;100707.17;88829;1296;22048;-76
2022/10/11 02:39:04;;;;;;;13.80;8.50;;;;;;;8.03;78.51;100706.44;88623;1299;22623;-76
2022/10/11 02:41:17;;;;;;;15.20;9.40;;;;;;;8.05;78.47;100708.48;88621;1299;22077;-76
2022/10/11 02:43:27;;;;;;;16.40;8.80;;;;;;;8.06;78.59;100707.61;88755;1280;22081;-76
2022/10/11 02:45:40;;;;;;;12.50;8.20;;;;;;;8.06;78.63;100708.65;88772;1297;22196;-76
2022/10/11 02:47:46;;;;;;;15.90;9.20;;;;;;;8.06;78.58;100704.98;88725;1299;22143;-76
2022/10/11 02:49:51;;;;;;;14.90;8.70;;;;;;;8.06;78.68;100710.02;88820;1296;22058;-76
2022/10/11 02:51:57;;;;;;;13.00;9.20;;;;;;;8.06;78.81;100710.89;88595;1298;22094;-76
2022/10/11 02:54:02;;;;;;;13.60;9.30;;;;;;;8.07;78.88;100712.27;88811;1296;22025;-76
2022/10/11 02:56:09;;;;;;;10.90;8.60;;;;;;;8.08;78.94;100712.95;88800;1291;22243;-76
2022/10/11 02:58:14;;;;;;;12.20;9.10;;;;;;;8.08;78.89;100713.81;88629;1304;22064;-76
2022/10/11 03:00:20;;;;;;;13.50;9.30;;;;;;;8.09;79.03;100718.31;88826;1295;22036;-76
2022/10/11 03:02:26;;;;;;;13.80;8.80;;;;;;;8.10;79.11;100720.04;88591;1303;22805;-76
2022/10/11 03:04:32;;;;;;;16.90;8.90;;;;;;;8.11;79.09;100714.43;88815;1294;22021;-76
2022/10/11 03:06:37;;;;;;;16.30;8.60;;;;;;;8.13;79.29;100715.27;88531;1305;22767;-76
2022/10/11 03:08:43;;;;;;;13.10;9.10;;;;;;;8.16;79.39;100719.89;88756;1297;22090;-76
2022/10/11 03:10:48;;;;;;;14.80;10.30;;;;;;;8.17;79.51;100730.11;88822;1294;21997;-76
2022/10/11 03:12:54;;;;;;;12.30;8.30;;;;;;;8.18;79.44;100723.66;88602;1306;22072;-76
2022/10/11 03:15:00;;;;;;;12.50;8.50;;;;;;;8.20;79.47;100722.23;88593;1298;22587;-76
2022/10/11 03:17:05;;;;;;;12.30;9.80;;;;;;;8.21;79.53;100724.62;88810;1288;22085;-76
2022/10/11 03:19:11;;;;;;;15.90;9.20;;;;;;;8.23;79.50;100725.10;88829;1287;22099;-76
2022/10/11 03:21:17;;;;;;;14.80;8.60;;;;;;;8.26;79.54;100725.73;88808;1296;22017;-76
2022/10/11 03:23:22;;;;;;;13.60;9.50;;;;;;;8.28;79.65;100722.75;88617;1298;22042;-76
2022/10/11 03:25:28;;;;;;;17.50;9.80;;;;;;;8.31;79.69;100728.59;88818;1296;22691;-76
2022/10/11 03:27:34;;;;;;;13.60;9.10;;;;;;;8.34;79.70;100730.27;88825;1296;22023;-76
2022/10/11 03:29:40;;;;;;;15.60;9.60;;;;;;;8.36;79.87;100728.30;88459;1306;22102;-76
2022/10/11 03:31:46;;;;;;;14.60;9.60;;;;;;;8.38;79.99;100732.63;88809;1296;22034;-76
2022/10/11 03:33:52;;;;;;;15.70;9.00;;;;;;;8.41;80.02;100733.94;88742;1294;22126;-76
2022/10/11 03:35:57;;;;;;;16.60;8.60;;;;;;;8.43;80.04;100735.29;88079;1287;1002370;-76
2022/10/11 03:38:03;;;;;;;15.70;9.90;;;;;;;8.46;79.99;100734.15;88820;1296;22088;-76
2022/10/11 03:40:11;;;;;;;17.00;9.40;;;;;;;8.49;80.01;100733.23;88815;1295;22032;-76
2022/10/11 03:42:17;;;;;;;14.20;9.40;;;;;;;8.51;80.03;100735.79;88812;1287;22115;-76
2022/10/11 03:44:22;;;;;;;12.20;9.10;;;;;;;8.55;80.23;100734.67;88799;1287;22048;-76
2022/10/11 03:46:28;;;;;;;13.10;9.50;;;;;;;8.56;80.21;100739.67;88826;1286;22034;-76
2022/10/11 03:48:33;;;;;;;18.30;9.20;;;;;;;8.58;80.33;100743.28;88618;1305;22037;-76
2022/10/11 03:50:39;;;;;;;16.80;9.90;;;;;;;8.60;80.47;100744.47;88747;1298;22598;-76
2022/10/11 03:52:44;;;;;;;16.60;9.90;;;;;;;8.60;80.55;100739.05;88806;1285;22207;-77
2022/10/11 03:54:50;;;;;;;13.90;8.70;;;;;;;8.62;80.49;100741.80;88827;1272;22027;-76
2022/10/11 03:56:57;;;;;;;11.00;8.60;;;;;;;8.62;80.50;100747.87;88602;1298;22553;-77
2022/10/11 03:59:02;;;;;;;16.20;9.80;;;;;;;8.63;80.71;100748.73;88818;1296;22618;-77
2022/10/11 04:01:08;;;;;;;17.20;10.80;;;;;;;8.64;80.80;100748.72;88761;1299;22687;-77
2022/10/11 04:03:14;;;;;;;16.10;10.20;;;;;;;8.64;80.78;100749.06;88834;1296;22077;-76
2022/10/11 04:05:20;;;;;;;12.20;9.30;;;;;;;8.65;80.88;100747.65;88628;1306;22584;-75
2022/10/11 04:07:25;;;;;;;14.20;9.60;;;;;;;8.64;80.84;100745.21;88809;1296;22079;-75
2022/10/11 04:09:31;;;;;;;12.20;9.40;;;;;;;8.65;80.82;100747.80;88835;1287;22047;-75
2022/10/11 04:11:37;;;;;;;13.30;9.80;;;;;;;8.64;80.93;100750.10;88846;1284;22022;-76
2022/10/11 04:13:43;;;;;;;15.90;10.10;;;;;;;8.63;80.96;100752.91;88599;1304;22063;-76
2022/10/11 04:15:49;;;;;;;15.60;9.50;;;;;;;8.61;80.95;100751.55;88604;1305;22637;-76
2022/10/11 04:17:54;;;;;;;15.20;10.40;;;;;;;8.61;81.10;100751.73;88810;1291;22020;-76
2022/10/11 04:20:00;;;;;;;15.20;9.90;;;;;;;8.60;81.12;100751.06;88602;1306;22643;-76
2022/10/11 04:22:06;;;;;;;17.70;10.90;;;;;;;8.58;81.23;100755.45;88824;1287;22036;-76
2022/10/11 04:24:12;;;;;;;13.20;10.00;;;;;;;8.55;81.24;100755.87;88588;1298;22033;-76
2022/10/11 04:26:17;;;;;;;13.80;10.60;;;;;;;8.52;81.35;100760.11;88613;1305;22778;-76
2022/10/11 04:28:23;;;;;;;14.00;11.50;;;;;;;8.49;81.40;100764.02;88696;1287;22083;-77
2022/10/11 04:30:28;;;;;;;12.20;9.90;;;;;;;8.46;81.49;100764.08;88618;1306;22090;-77
2022/10/11 04:32:34;;;;;;;13.50;10.00;;;;;;;8.44;81.60;100769.33;88700;1299;22177;-77
2022/10/11 04:34:41;;;;;;;18.50;10.20;;;;;;;8.42;81.62;100769.73;88803;1284;22007;-77
2022/10/11 04:36:46;;;;;;;16.00;10.60;;;;;;;8.39;81.71;100772.60;88833;1287;22187;-76
2022/10/11 04:38:54;;;;;;;14.80;9.80;;;;;;;8.36;81.64;100775.78;88589;1306;22118;-76
2022/10/11 04:41:08;;;;;;;15.30;9.90;;;;;;;8.32;81.80;100774.27;88770;1299;22045;-77
2022/10/11 04:43:15;;;;;;;13.00;10.10;;;;;;;8.29;81.92;100782.33;88816;1296;22629;-76
2022/10/11 04:45:21;;;;;;;20.10;10.70;;;;;;;8.25;81.94;100783.45;88072;1296;1002034;-76
2022/10/11 04:47:27;;;;;;;15.10;11.20;;;;;;;8.21;82.04;100783.03;88820;1294;22034;-76
2022/10/11 04:49:33;;;;;;;15.20;10.90;;;;;;;8.17;82.10;100780.00;88808;1296;22056;-76
2022/10/11 04:51:38;;;;;;;16.80;11.50;;;;;;;8.14;82.23;100781.63;88619;1303;22194;-76
2022/10/11 04:53:44;;;;;;;13.10;10.10;;;;;;;8.10;82.14;100781.36;88753;1299;22102;-76
2022/10/11 04:56:01;;;;;;;15.10;10.30;;;;;;;8.05;82.15;100782.67;88626;1303;22566;-77
2022/10/11 04:58:07;;;;;;;16.20;11.20;;;;;;;8.00;82.31;100781.57;88609;1298;22049;-76
2022/10/11 05:00:15;;;;;;;17.30;11.90;;;;;;;7.96;82.28;100778.52;88646;1291;22060;-76
2022/10/11 05:02:22;;;;;;;17.40;12.10;;;;;;;7.90;82.28;100781.23;88827;1285;22052;-77
2022/10/11 05:04:27;;;;;;;17.00;10.80;;;;;;;7.86;82.45;100783.06;88635;1303;22153;-77
2022/10/11 05:06:33;;;;;;;20.00;12.70;;;;;;;7.81;82.53;100789.08;88814;1284;22091;-76
2022/10/11 05:08:40;;;;;;;17.40;11.20;;;;;;;7.79;82.93;100790.69;88807;1296;22077;-76
2022/10/11 05:10:56;;;;;;;15.10;11.80;;;;;;;7.76;82.98;100795.59;88602;1299;22074;-76
2022/10/11 05:13:01;;;;;;;19.10;11.70;;;;;;;7.71;83.07;100801.42;88578;1296;327601;-74
2022/10/11 05:15:10;;;;;;;16.90;11.60;;;;;;;7.68;83.08;100799.05;88589;1303;22048;-76
2022/10/11 05:17:15;;;;;;;22.30;12.90;;;;;;;7.66;83.21;100807.27;88817;1296;22101;-76
2022/10/11 05:19:21;;;;;;;20.60;12.50;;;;;;;7.64;83.50;100808.51;88596;1297;22081;-76
2022/10/11 05:21:28;;;;;;;16.00;12.50;;;;;;;7.62;83.65;100809.93;88826;1293;22050;-76
2022/10/11 05:23:34;;;;;;;18.30;11.70;;;;;;;7.61;83.71;100807.86;87123;1299;1002359;-76
2022/10/11 05:25:39;;;;;;;20.40;13.70;;;;;;;7.60;83.85;100810.85;88807;1291;22065;-76
2022/10/11 05:27:45;;;;;;;19.60;13.80;;;;;;;7.60;84.25;100814.14;88540;1306;22130;-77
2022/10/11 05:29:50;;;;;;;20.60;12.80;;;;;;;7.60;84.29;100813.98;88831;1285;22099;-77
2022/10/11 05:31:56;;;;;;;19.70;12.40;;;;;;;7.59;84.35;100813.98;88807;1291;22562;-77
2022/10/11 05:34:01;;;;;;;23.40;13.70;;;;;;;7.58;84.27;100812.62;88806;1287;21997;-77
2022/10/11 05:36:08;;;;;;;19.90;12.90;;;;;;;7.58;84.51;100814.70;88473;1297;22109;-76
2022/10/11 05:38:14;;;;;;;17.30;13.10;;;;;;;7.60;84.84;100817.61;88602;1303;22077;-76
2022/10/11 05:40:19;;;;;;;18.60;13.30;;;;;;;7.64;85.00;100821.36;88616;1303;22100;-76
2022/10/11 05:42:25;;;;;;;22.20;14.50;;;;;;;7.73;85.57;100822.57;88614;1298;22110;-76
2022/10/11 05:44:30;;;;;;;17.80;13.70;;;;;;;7.84;85.98;100826.88;88796;1279;22568;-76
2022/10/11 05:46:36;;;;;;;27.00;16.40;;;;;;;7.94;86.18;100820.77;88835;1296;22604;-76
2022/10/11 05:48:42;;;;;;;20.60;14.80;;;;;;;8.03;86.07;100824.95;88809;1296;22622;-76
2022/10/11 05:50:48;;;;;;;20.00;14.60;;;;;;;8.09;86.08;100822.23;88729;1286;22044;-76
2022/10/11 05:52:53;;;;;;;20.70;14.10;;;;;;;8.13;85.93;100823.52;87853;1304;1002624;-76
2022/10/11 05:54:59;;;;;;;18.40;13.70;;;;;;;8.17;85.94;100821.52;88595;1291;22080;-76
2022/10/11 05:57:05;;;;;;;19.80;14.00;;;;;;;8.22;86.03;100824.36;88817;1291;22062;-76
2022/10/11 05:59:11;;;;;;;27.30;15.90;;;;;;;8.30;86.19;100833.08;88804;1287;22410;-76
2022/10/11 06:01:24;;;;;;;25.20;14.60;;;;;;;8.39;86.24;100837.43;88819;1293;22691;-76
2022/10/11 06:03:30;;;;;;;23.70;14.70;;;;;;;8.57;86.79;100844.52;88802;1296;22604;-76
2022/10/11 06:05:36;;;;;;;22.80;14.80;;;;;;;8.90;87.55;100847.91;88624;1306;22071;-76
2022/10/11 06:07:41;;;;;;;22.70;14.70;;;;;;;9.15;87.49;100848.39;88755;1299;22577;-77
2022/10/11 06:09:47;;;;;;;24.10;15.20;;;;;;;9.28;87.12;100850.14;88616;1304;22099;-75
2022/10/11 06:11:52;;;;;;;19.90;14.20;;;;;;;9.41;86.69;100857.50;88801;1287;22087;-74
2022/10/11 06:13:59;;;;;;;22.20;15.30;;;;;;;9.50;86.25;100853.94;88605;1304;22044;-74
2022/10/11 06:16:06;;;;;;;28.80;15.90;;;;;;;9.60;86.17;100866.74;88644;1304;22689;-77
2022/10/11 06:18:12;;;;;;;24.70;15.40;;;;;;;9.70;86.12;100868.05;88804;1293;22014;-77
2022/10/11 06:20:18;;;;;;;21.10;14.60;;;;;;;9.81;86.11;100871.58;88825;1296;22103;-77
2022/10/11 06:22:24;;;;;;;26.80;15.30;;;;;;;9.94;85.86;100878.40;88845;1290;22076;-77
2022/10/11 06:24:29;;;;;;;34.20;15.60;;;;;;;10.06;85.86;100881.37;88609;1291;22065;-77
2022/10/11 06:26:35;;;;;;;30.30;15.60;;;;;;;10.18;85.54;100883.11;88824;1296;22050;-77
2022/10/11 06:28:40;;;;;;;24.10;16.30;;;;;;;10.30;85.46;100889.61;88821;1296;22020;-77
2022/10/11 06:30:46;;;;;;;22.90;15.00;;;;;;;10.44;85.42;100895.84;88619;1287;22126;-76
2022/10/11 06:32:51;;;;;;;22.80;14.90;;;;;;;10.58;85.37;100893.34;88700;1298;22791;-76
2022/10/11 06:34:57;;;;;;;21.10;15.30;;;;;;;10.75;85.43;100897.52;88822;1296;22707;-76
2022/10/11 06:37:02;;;;;;;18.70;14.20;;;;;;;10.94;85.28;100897.48;88601;1305;22065;-76
2022/10/11 06:39:08;;;;;;;21.60;14.70;;;;;;;11.12;85.11;100901.10;88615;1306;22111;-76
2022/10/11 06:41:18;;;;;;;22.70;13.80;;;;;;;11.31;84.87;100909.94;88819;1296;22014;-76
2022/10/11 06:43:24;;;;;;;21.10;14.30;;;;;;;11.49;84.55;100912.30;88779;1285;22040;-76
2022/10/11 06:45:30;;;;;;;15.60;12.30;;;;;;;11.65;83.99;100912.10;88809;1287;22050;-76
2022/10/11 06:47:35;;;;;;;16.80;12.90;;;;;;;11.80;83.79;100914.77;88607;1306;22217;-76
2022/10/11 06:49:41;;;;;;;22.20;14.00;;;;;;;11.96;83.58;100916.14;88791;1283;22102;-76
2022/10/11 06:51:47;;;;;;;19.70;12.60;;;;;;;12.12;83.33;100918.52;88589;1298;22628;-76
2022/10/11 06:53:54;;;;;;;15.90;11.60;;;;;;;12.30;83.03;100917.23;88821;1285;22039;-76
2022/10/11 06:56:04;;;;;;;19.10;12.20;;;;;;;12.45;82.75;100921.56;88608;1306;22191;-76
2022/10/11 06:58:09;;;;;;;;;;;;;;;12.59;82.06;100926.80;88755;1299;22960;-76
2022/10/11 07:00:17;;;;;;;17.30;12.30;;;;;;;12.66;81.51;100932.50;88816;1285;22706;-76
2022/10/11 07:02:23;;;;;;;17.70;11.40;;;;;;;12.73;81.04;100935.39;88791;1290;22170;-76
2022/10/11 07:04:29;;;;;;;13.90;11.70;;;;;;;12.76;80.40;100937.54;88803;1286;22142;-76
2022/10/11 07:06:37;;;;;;;14.40;12.00;;;;;;;12.78;79.89;100937.81;88737;1299;22674;-76
2022/10/11 07:08:43;;;;;;;22.60;11.20;;;;;;;12.78;79.20;100937.47;88810;1294;22078;-76
2022/10/11 07:10:52;;;;;;;18.00;11.90;;;;;;;12.75;78.72;100948.43;88843;1288;22020;-76
2022/10/11 07:13:00;;;;;;;16.00;13.20;;;;;;;12.77;78.83;100948.18;88604;1299;22097;-76
2022/10/11 07:15:07;;;;;;;16.80;11.50;;;;;;;12.81;78.66;100953.30;88809;1295;22088;-76
2022/10/11 07:17:13;;;;;;;16.90;11.80;;;;;;;12.80;78.35;100958.57;88604;1294;22064;-76
2022/10/11 07:19:18;;;;;;;18.10;11.70;;;;;;;12.83;78.44;100956.88;88794;1296;22075;-76
2022/10/11 07:21:24;;;;;;;17.50;12.20;;;;;;;12.89;78.29;100952.61;88718;1299;22870;-76
2022/10/11 07:23:29;;;;;;;15.10;12.60;;;;;;;13.01;78.74;100958.30;88800;1296;22771;-76
2022/10/11 07:25:35;;;;;;;16.90;12.10;;;;;;;13.20;79.01;100960.20;88584;1301;22057;-76
2022/10/11 07:27:41;;;;;;;20.90;12.80;;;;;;;13.45;78.72;100964.83;88816;1296;22043;-76
2022/10/11 07:29:46;;;;;;;22.40;12.00;;;;;;;13.61;77.98;100970.30;88805;1296;22058;-76
2022/10/11 07:31:52;;;;;;;17.40;12.00;;;;;;;13.76;77.41;100971.78;88590;1294;22078;-76
2022/10/11 07:33:57;;;;;;;16.00;11.40;;;;;;;13.89;76.97;100974.74;88592;1305;22650;-76
2022/10/11 07:36:04;;;;;;;14.30;12.50;;;;;;;14.14;77.04;100980.90;88795;1288;22083;-76
2022/10/11 07:38:11;;;;;;;18.20;12.30;;;;;;;14.48;76.76;100980.81;88603;1306;22078;-76
2022/10/11 07:40:17;;;;;;;15.00;11.30;;;;;;;14.74;76.01;100987.75;88600;1301;22578;-77
2022/10/11 07:42:22;;;;;;;12.80;10.80;;;;;;;14.86;74.86;100987.39;88603;1306;22141;-77
2022/10/11 07:44:28;;;;;;;15.50;11.70;;;;;;;14.95;74.35;100988.69;88613;1306;22066;-77
2022/10/11 07:46:33;;;;;;;16.40;11.40;;;;;;;15.01;73.82;100996.70;88830;1284;22096;-77
2022/10/11 07:48:39;;;;;;;12.00;10.10;;;;;;;14.98;72.88;101000.34;88601;1305;22125;-77
2022/10/11 07:50:45;;;;;;;14.90;10.80;;;;;;;14.87;72.02;101000.85;88803;1296;22676;-77
2022/10/11 07:52:51;;;;;;;15.50;11.50;;;;;;;14.75;72.21;101006.84;88808;1297;22067;-77
2022/10/11 07:54:56;;;;;;;14.50;10.80;;;;;;;14.69;72.30;101012.02;88617;1305;22046;-77
2022/10/11 07:57:02;;;;;;;13.20;11.10;;;;;;;14.65;72.09;101019.23;88807;1291;22030;-77
2022/10/11 07:59:07;;;;;;;14.20;10.20;;;;;;;14.58;71.86;101018.68;88795;1288;22090;-77
2022/10/11 08:01:13;;;;;;;13.00;10.60;;;;;;;14.50;71.77;101019.36;88608;1305;22070;-77
2022/10/11 08:03:19;;;;;;;12.00;10.50;;;;;;;14.45;71.89;101022.20;88793;1296;22649;-77
2022/10/11 08:05:24;;;;;;;16.00;12.10;;;;;;;14.40;71.85;101026.27;88829;1300;22643;-77
2022/10/11 08:07:33;;;;;;;15.20;11.40;;;;;;;14.39;71.99;101028.45;88804;1296;22032;-77
2022/10/11 08:09:41;;;;;;;13.40;10.30;;;;;;;14.35;72.15;101029.83;88594;1301;22069;-77
2022/10/11 08:11:47;;;;;;;11.30;10.10;;;;;;;14.34;72.23;101029.51;88606;1301;22044;-77
2022/10/11 08:13:53;;;;;;;13.30;9.80;;;;;;;14.34;72.29;101031.60;88741;1285;22062;-77
2022/10/11 08:15:59;;;;;;;14.20;10.90;;;;;;;14.37;72.59;101033.09;88813;1285;22057;-77
2022/10/11 08:18:06;;;;;;;11.20;10.00;;;;;;;14.41;72.49;101034.60;88783;1296;22707;-77
2022/10/11 08:20:12;;;;;;;14.90;9.60;;;;;;;14.46;72.46;101040.73;88591;1307;22099;-76
2022/10/11 08:22:18;;;;;;;13.30;10.00;;;;;;;14.51;72.42;101043.59;88609;1301;22076;-76
2022/10/11 08:24:24;;;;;;;14.90;9.80;;;;;;;14.54;72.39;101042.89;88800;1283;22760;-76
2022/10/11 08:26:29;;;;;;;10.60;9.10;;;;;;;14.61;72.41;101042.41;88617;1305;22065;-76
2022/10/11 08:28:35;;;;;;;10.80;9.70;;;;;;;14.69;71.97;101044.84;88604;1306;22066;-76
2022/10/11 08:30:42;;;;;;;11.20;9.50;;;;;;;14.74;71.62;101040.61;88817;1294;22085;-76
2022/10/11 08:32:48;;;;;;;13.00;9.60;;;;;;;14.86;72.01;101037.08;88797;1292;22048;-76
2022/10/11 08:34:54;;;;;;;13.20;10.10;;;;;;;15.03;71.64;101041.94;88815;1296;22018;-76
2022/10/11 08:36:59;;;;;;;12.70;9.60;;;;;;;15.25;71.67;101043.73;88609;1306;22090;-76
2022/10/11 08:39:05;;;;;;;11.40;9.60;;;;;;;15.43;71.01;101039.55;88611;1305;22672;-76
2022/10/11 08:41:27;;;;;;;14.90;9.90;;;;;;;15.55;70.65;101039.83;88788;1288;22124;-76
2022/10/11 08:43:40;;;;;;;10.80;8.40;;;;;;;15.71;70.17;101035.58;88808;1283;22647;-74
2022/10/11 08:45:49;;;;;;;9.40;8.30;;;;;;;15.85;70.00;101036.63;88835;1288;22026;-73
2022/10/11 08:47:59;;;;;;;12.90;9.20;;;;;;;15.97;69.15;101039.38;88609;1307;21966;-73
2022/10/11 08:50:07;;;;;;;10.70;8.30;;;;;;;16.04;68.64;101044.14;88637;1306;22187;-73
2022/10/11 08:52:15;;;;;;;12.30;8.80;;;;;;;16.12;68.49;101043.39;88804;1302;22095;-73
2022/10/11 08:54:23;;;;;;;9.90;7.90;;;;;;;16.21;68.42;101042.24;88790;1290;22041;-74
2022/10/11 08:56:28;;;;;;;8.80;7.50;;;;;;;16.31;68.36;101048.41;88544;1307;22234;-74
2022/10/11 08:58:38;;;;;;;12.40;7.60;;;;;;;16.38;67.84;101045.58;88614;1307;22692;-74
2022/10/11 09:00:44;;;;;;;11.70;7.10;;;;;;;16.39;67.13;101050.15;88594;1304;22065;-74
2022/10/11 09:02:58;;;;;;;10.00;8.20;;;;;;;16.34;66.66;101050.70;88796;1302;22039;-75
2022/10/11 09:05:05;;;;;;;7.70;6.90;;;;;;;16.36;66.95;101052.04;88762;1292;22046;-76
2022/10/11 09:07:18;;;;;;;11.70;8.50;;;;;;;16.37;66.27;101054.29;88598;1305;22091;-76
2022/10/11 09:09:44;;;;;;;10.60;7.10;;;;;;;16.34;66.52;101057.58;88699;1292;22053;-76
2022/10/11 09:12:00;;;;;;;12.70;7.80;;;;;;;16.31;65.98;101058.80;88799;1291;22110;-76
2022/10/11 09:14:41;;;;;;;10.40;7.30;;;;;;;16.22;66.14;101057.67;88790;1289;22025;-76
2022/10/11 09:16:55;;;;;;;11.20;7.90;;;;;;;16.18;66.12;101061.77;88596;1308;22070;-75
2022/10/11 09:19:38;;;;;;;10.80;8.10;;;;;;;16.19;66.11;101060.84;88699;1304;22635;-75
2022/10/11 09:21:48;;;;;;;12.10;7.00;;;;;;;16.20;66.22;101062.38;88385;1311;22147;-75
2022/10/11 09:24:09;;;;;;;9.00;6.90;;;;;;;16.24;65.86;101066.21;88813;1297;22105;-75
2022/10/11 09:26:21;;;;;;;9.20;6.80;;;;;;;16.23;65.57;101066.75;88618;1287;22081;-75
2022/10/11 09:28:34;;;;;;;10.60;6.60;;;;;;;16.23;65.47;101068.02;88802;1297;22604;-75
2022/10/11 09:31:10;;;;;;;8.00;5.90;;;;;;;16.22;65.16;101071.23;88840;1301;22650;-75
2022/10/11 09:33:20;;;;;;;9.80;5.70;;;;;;;16.19;65.35;101074.58;88606;1294;22070;-75
2022/10/11 09:35:36;;;;;;;7.80;6.30;;;;;;;16.15;65.11;101072.96;88702;1291;22865;-75
2022/10/11 09:37:49;;;;;;;6.40;5.10;;;;;;;16.08;64.68;101079.84;88793;1290;22063;-75
2022/10/11 09:39:56;;;;;;;6.30;5.70;;;;;;;15.91;64.30;101077.19;88615;1304;22066;-75
2022/10/11 09:42:04;;;;;;;7.20;4.80;;;;;;;15.82;64.87;101083.77;88618;1304;22093;-75
2022/10/11 09:44:22;;;;;;;6.00;4.30;;;;;;;15.81;65.39;101082.06;88809;1291;22109;-75
2022/10/11 09:46:34;;;;;;;8.10;5.60;;;;;;;15.86;65.50;101081.28;88621;1302;22053;-75
2022/10/11 09:48:41;;;;;;;9.80;5.20;;;;;;;15.95;65.81;101084.54;88812;1291;22613;-76
2022/10/11 09:50:47;;;;;;;11.50;5.50;;;;;;;16.02;65.39;101087.03;88780;1296;22054;-76